Time;durP1;ratioP1;P1;durP2;ratioP2;P2;SDS_P1;SDS_P2;PMS_P1;PMS_P2;Temp;Humidity;BMP_temperature;BMP_pressure;BME280_temperature;BME280_humidity;BME280_pressure;Samples;Min_cycle;Max_cycle;Signal;HPM_P1;HPM_P2
2022/12/20 00:00:06;;;;;;;16.87;12.20;;;4.20;99.90;;;;;;5010481;28;20543;-50
2022/12/20 00:02:33;;;;;;;17.27;10.90;;;4.20;99.90;;;;;;5011191;28;20974;-51
2022/12/20 00:04:59;;;;;;;14.40;11.67;;;4.20;99.90;;;;;;5009066;28;20554;-50
2022/12/20 00:07:26;;;;;;;18.27;13.23;;;4.30;99.90;;;;;;5010259;28;20547;-50
2022/12/20 00:09:52;;;;;;;16.00;12.07;;;4.30;99.90;;;;;;5011332;28;20558;-51
2022/12/20 00:12:19;;;;;;;18.53;12.83;;;4.30;99.90;;;;;;5011556;28;20543;-51
2022/12/20 00:14:46;;;;;;;18.67;12.50;;;4.30;99.90;;;;;;5011044;28;20571;-51
2022/12/20 00:17:13;;;;;;;14.07;11.37;;;4.30;99.90;;;;;;5011367;28;20464;-51
2022/12/20 00:19:40;;;;;;;15.40;11.67;;;4.30;99.90;;;;;;5011550;28;20463;-51
2022/12/20 00:22:06;;;;;;;13.60;11.27;;;4.30;99.90;;;;;;5010258;28;20517;-50
2022/12/20 00:24:33;;;;;;;16.47;12.90;;;4.40;99.90;;;;;;5012334;28;20471;-52
2022/12/20 00:27:00;;;;;;;14.77;11.47;;;4.30;99.90;;;;;;5011768;28;20811;-50
2022/12/20 00:29:26;;;;;;;17.50;12.23;;;4.40;99.90;;;;;;5017951;28;20471;-50
2022/12/20 00:31:54;;;;;;;15.20;11.97;;;4.40;99.90;;;;;;5015612;28;20525;-50
2022/12/20 00:34:21;;;;;;;16.50;11.83;;;4.40;99.90;;;;;;5010987;28;20547;-50
2022/12/20 00:36:47;;;;;;;17.30;13.20;;;4.40;99.90;;;;;;5008695;28;20563;-50
2022/12/20 00:39:14;;;;;;;15.90;11.73;;;4.40;99.90;;;;;;5008662;28;20895;-50
2022/12/20 00:41:40;;;;;;;15.70;11.93;;;4.40;99.90;;;;;;5012250;28;20455;-50
2022/12/20 00:44:07;;;;;;;15.90;12.40;;;4.40;99.90;;;;;;5011297;28;20553;-50
2022/12/20 00:46:34;;;;;;;17.70;12.17;;;4.40;99.90;;;;;;5010938;28;20479;-50
2022/12/20 00:49:02;;;;;;;19.70;12.83;;;4.40;99.90;;;;;;5005578;28;20464;-51
2022/12/20 00:51:31;;;;;;;18.43;12.30;;;4.40;99.90;;;;;;5008823;28;20496;-52
2022/12/20 00:53:58;;;;;;;19.77;12.50;;;4.40;99.90;;;;;;5004473;28;20840;-50
2022/12/20 00:56:25;;;;;;;12.77;10.73;;;4.40;99.90;;;;;;5005507;28;20498;-50
2022/12/20 00:58:52;;;;;;;16.13;11.67;;;4.40;99.90;;;;;;5011969;28;20534;-51
2022/12/20 01:01:21;;;;;;;15.33;11.30;;;4.50;99.90;;;;;;5010819;28;20562;-52
2022/12/20 01:03:48;;;;;;;17.60;12.10;;;4.50;99.90;;;;;;5010156;28;20555;-50
2022/12/20 01:06:16;;;;;;;19.27;12.00;;;4.50;99.90;;;;;;5012155;28;20889;-50
2022/12/20 01:08:43;;;;;;;13.77;11.47;;;4.50;99.90;;;;;;5011156;28;20579;-51
2022/12/20 01:11:13;;;;;;;16.03;11.97;;;4.50;99.90;;;;;;5007855;28;20464;-51
2022/12/20 01:13:41;;;;;;;17.30;12.23;;;4.40;99.90;;;;;;4996867;28;20542;-51
2022/12/20 01:16:10;;;;;;;17.00;12.77;;;4.50;99.90;;;;;;5011152;28;20580;-51
2022/12/20 01:18:37;;;;;;;15.70;11.23;;;4.50;99.90;;;;;;5011622;28;20554;-50
2022/12/20 01:21:05;;;;;;;19.83;12.00;;;4.50;99.90;;;;;;5010654;28;20542;-51
2022/12/20 01:23:33;;;;;;;15.13;11.03;;;4.50;99.90;;;;;;5008853;28;20464;-52
2022/12/20 01:26:00;;;;;;;18.77;12.10;;;4.50;99.90;;;;;;5010701;28;20578;-50
2022/12/20 01:28:27;;;;;;;17.90;12.57;;;4.50;99.90;;;;;;5010500;28;20495;-50
2022/12/20 01:30:54;;;;;;;16.93;11.97;;;4.50;99.90;;;;;;5012136;28;20559;-50
2022/12/20 01:33:21;;;;;;;18.40;10.80;;;4.60;99.90;;;;;;5013467;28;20471;-50
2022/12/20 01:35:56;;;;;;;19.97;11.67;;;4.60;99.90;;;;;;5013818;28;20937;-51
2022/12/20 01:38:23;;;;;;;17.60;12.63;;;4.60;99.90;;;;;;5013547;28;20462;-51
2022/12/20 01:40:52;;;;;;;18.50;12.90;;;4.60;99.90;;;;;;5009430;28;20542;-51
2022/12/20 01:43:20;;;;;;;14.77;11.17;;;4.60;99.90;;;;;;5011239;28;20467;-51
2022/12/20 01:45:47;;;;;;;15.10;11.27;;;4.60;99.90;;;;;;5013121;28;21043;-49
2022/12/20 01:48:16;;;;;;;17.23;11.37;;;4.60;99.90;;;;;;5012544;28;20562;-52
2022/12/20 01:50:43;;;;;;;14.73;11.47;;;4.60;99.90;;;;;;5013502;28;20866;-51
2022/12/20 01:53:10;;;;;;;14.10;11.20;;;4.60;99.90;;;;;;5014276;28;20873;-51
2022/12/20 01:55:37;;;;;;;16.70;12.00;;;4.50;99.90;;;;;;5014350;28;20594;-50
2022/12/20 01:58:08;;;;;;;15.10;11.33;;;4.60;99.90;;;;;;5013613;28;20545;-51
2022/12/20 02:00:35;;;;;;;17.50;11.00;;;4.50;99.90;;;;;;5011982;28;20558;-50
2022/12/20 02:03:06;;;;;;;16.93;12.07;;;4.40;99.90;;;;;;5013079;28;20455;-51
2022/12/20 02:05:36;;;;;;;16.70;11.10;;;4.40;99.90;;;;;;5011977;28;20534;-51
2022/12/20 02:08:02;;;;;;;16.30;11.20;;;4.50;99.90;;;;;;5014264;28;20561;-51
2022/12/20 02:10:43;;;;;;;13.23;10.40;;;4.50;99.90;;;;;;5010133;28;20488;-51
2022/12/20 02:13:20;;;;;;;15.30;11.20;;;4.50;99.90;;;;;;5011724;28;20566;-50
2022/12/20 02:15:54;;;;;;;14.63;11.47;;;4.50;99.90;;;;;;5013610;28;20939;-50
2022/12/20 02:18:25;;;;;;;18.63;12.10;;;4.50;99.90;;;;;;5012235;28;20937;-51
2022/12/20 02:21:22;;;;;;;16.77;11.20;;;4.60;99.90;;;;;;5014170;28;20550;-50
2022/12/20 02:24:18;;;;;;;13.20;10.40;;;4.60;99.90;;;;;;5003697;28;21016;-51
2022/12/20 02:27:16;;;;;;;19.30;11.73;;;4.60;99.90;;;;;;5012609;28;20542;-51
2022/12/20 02:30:00;;;;;;;14.93;11.23;;;4.60;99.90;;;;;;5006575;28;20983;-52
2022/12/20 02:32:30;;;;;;;16.27;12.17;;;4.60;99.90;;;;;;5013520;28;20526;-50
2022/12/20 02:34:57;;;;;;;18.00;12.17;;;4.70;99.90;;;;;;5009578;28;20586;-51
2022/12/20 02:37:23;;;;;;;18.33;12.27;;;4.70;99.90;;;;;;5013782;28;20486;-51
2022/12/20 02:39:50;;;;;;;16.87;11.73;;;4.70;99.90;;;;;;5013950;28;20538;-51
2022/12/20 02:42:20;;;;;;;16.70;11.97;;;4.70;99.90;;;;;;5012219;28;20877;-51
2022/12/20 02:47:40;;;;;;;15.40;12.50;;;4.70;99.90;;;;;;5000928;28;20460;-50
2022/12/20 02:50:09;;;;;;;15.00;11.63;;;4.80;99.90;;;;;;5009952;28;20546;-51
2022/12/20 02:52:36;;;;;;;17.27;12.43;;;4.80;99.90;;;;;;5009833;28;20543;-50
2022/12/20 02:55:04;;;;;;;19.17;11.60;;;4.80;99.90;;;;;;5006563;28;20515;-50
2022/12/20 02:57:38;;;;;;;14.13;11.20;;;4.80;99.90;;;;;;5012433;28;20495;-51
2022/12/20 03:00:10;;;;;;;16.40;11.47;;;4.80;99.90;;;;;;5011082;28;21217;-51
2022/12/20 03:05:21;;;;;;;15.07;11.37;;;4.80;99.90;;;;;;5007448;28;20484;-51
2022/12/20 03:07:49;;;;;;;15.27;11.57;;;4.80;99.90;;;;;;5011297;28;20566;-51
2022/12/20 03:10:15;;;;;;;15.73;12.17;;;4.80;99.90;;;;;;5010587;28;20464;-51
2022/12/20 03:12:42;;;;;;;18.43;12.70;;;4.80;99.90;;;;;;5013687;28;20483;-51
2022/12/20 03:15:09;;;;;;;16.53;12.00;;;4.80;99.90;;;;;;5012613;28;20538;-51
2022/12/20 03:17:38;;;;;;;16.33;12.07;;;4.80;99.90;;;;;;5013112;28;20897;-51
2022/12/20 03:20:06;;;;;;;14.47;11.83;;;4.80;99.90;;;;;;4995912;28;20519;-51
2022/12/20 03:22:33;;;;;;;17.47;11.50;;;4.90;99.90;;;;;;5011811;28;20530;-52
2022/12/20 03:24:59;;;;;;;15.33;11.67;;;4.90;99.90;;;;;;5012127;28;21096;-50
2022/12/20 03:27:26;;;;;;;15.50;12.00;;;4.80;99.90;;;;;;5013575;28;20912;-51
2022/12/20 03:29:53;;;;;;;13.10;10.00;;;4.90;99.90;;;;;;5012990;28;20460;-51
2022/12/20 03:32:20;;;;;;;14.00;10.87;;;4.80;99.90;;;;;;5011064;28;20467;-51
2022/12/20 03:34:48;;;;;;;16.50;11.80;;;4.90;99.90;;;;;;5012950;28;21017;-51
2022/12/20 03:37:15;;;;;;;16.50;11.80;;;4.80;99.90;;;;;;5013599;28;20515;-51
2022/12/20 03:39:42;;;;;;;17.10;12.50;;;4.80;99.90;;;;;;5012976;28;20507;-51
2022/12/20 03:42:08;;;;;;;14.37;11.37;;;4.70;99.90;;;;;;5010188;28;20460;-51
2022/12/20 03:44:35;;;;;;;15.93;11.63;;;4.70;99.90;;;;;;5009079;28;20473;-50
2022/12/20 03:47:01;;;;;;;19.03;12.20;;;4.60;99.90;;;;;;5008341;28;20796;-52
2022/12/20 03:49:28;;;;;;;12.73;10.60;;;4.60;99.90;;;;;;5011864;28;20494;-53
2022/12/20 03:51:56;;;;;;;15.00;10.37;;;4.60;99.90;;;;;;5012047;28;20502;-51
2022/12/20 03:54:22;;;;;;;15.83;11.80;;;4.50;99.90;;;;;;5012114;28;20581;-51
2022/12/20 03:56:49;;;;;;;14.23;10.73;;;4.50;99.90;;;;;;5008424;28;20526;-51
2022/12/20 03:59:16;;;;;;;13.97;10.90;;;4.40;99.90;;;;;;5009886;28;20502;-50
2022/12/20 04:01:43;;;;;;;15.83;11.30;;;4.40;99.90;;;;;;5012109;28;20502;-52
2022/12/20 04:04:10;;;;;;;14.13;10.30;;;4.40;99.90;;;;;;5012098;28;20499;-51
2022/12/20 04:06:37;;;;;;;14.10;10.87;;;4.50;99.90;;;;;;5011984;28;20924;-51
2022/12/20 04:09:05;;;;;;;12.50;10.33;;;4.40;99.90;;;;;;5005802;28;20994;-51
2022/12/20 04:11:31;;;;;;;13.90;10.97;;;4.40;99.90;;;;;;5007710;28;20491;-52
2022/12/20 04:13:58;;;;;;;15.80;11.60;;;4.40;99.90;;;;;;5012065;28;20492;-52
2022/12/20 04:16:27;;;;;;;13.50;11.13;;;4.30;99.90;;;;;;5015263;28;20522;-52
2022/12/20 04:18:53;;;;;;;14.73;11.00;;;4.30;99.90;;;;;;5010179;28;20973;-52
2022/12/20 04:21:22;;;;;;;15.47;11.17;;;4.30;99.90;;;;;;5008711;28;20503;-52
2022/12/20 04:23:49;;;;;;;14.73;10.73;;;4.30;99.90;;;;;;5010107;28;20495;-51
2022/12/20 04:26:17;;;;;;;13.97;10.77;;;4.30;99.90;;;;;;5011651;28;20476;-53
2022/12/20 04:28:44;;;;;;;12.23;9.60;;;4.30;99.90;;;;;;5010863;28;20988;-53
2022/12/20 04:31:11;;;;;;;11.10;9.87;;;4.30;99.90;;;;;;5007442;28;20555;-51
2022/12/20 04:33:38;;;;;;;13.27;9.93;;;4.20;99.90;;;;;;5008198;28;20463;-50
2022/12/20 04:36:05;;;;;;;12.90;10.53;;;4.20;99.90;;;;;;5014767;28;20593;-53
2022/12/20 04:38:31;;;;;;;12.03;10.80;;;4.20;99.90;;;;;;5009087;28;20494;-51
2022/12/20 04:40:58;;;;;;;13.90;10.97;;;4.20;99.90;;;;;;5010206;28;20514;-51
2022/12/20 04:43:26;;;;;;;15.80;11.50;;;4.20;99.90;;;;;;5010634;28;20942;-51
2022/12/20 04:45:55;;;;;;;17.87;10.10;;;4.20;99.90;;;;;;5010096;28;20519;-53
2022/12/20 04:48:23;;;;;;;14.67;11.00;;;4.20;99.90;;;;;;5010931;28;20979;-53
2022/12/20 04:50:50;;;;;;;13.43;10.77;;;4.10;99.90;;;;;;5009151;28;20474;-53
2022/12/20 04:56:02;;;;;;;14.13;10.80;;;4.20;99.90;;;;;;5010656;28;21015;-52
2022/12/20 04:58:30;;;;;;;11.40;9.93;;;4.20;99.90;;;;;;5012259;28;20494;-51
2022/12/20 05:00:57;;;;;;;14.37;10.90;;;4.20;99.90;;;;;;5011373;28;20547;-53
2022/12/20 05:03:25;;;;;;;13.73;10.87;;;4.20;99.90;;;;;;5011443;28;20897;-51
2022/12/20 05:05:52;;;;;;;16.90;11.20;;;4.30;99.90;;;;;;5011369;28;21020;-50
2022/12/20 05:08:19;;;;;;;16.80;10.97;;;4.30;99.90;;;;;;5009432;28;20517;-52
2022/12/20 05:10:46;;;;;;;16.57;12.33;;;4.30;99.90;;;;;;5010569;28;20498;-52
2022/12/20 05:13:13;;;;;;;13.47;10.57;;;4.20;99.90;;;;;;5009647;28;20494;-52
2022/12/20 05:15:42;;;;;;;12.73;9.97;;;4.30;99.90;;;;;;5013754;28;20568;-52
2022/12/20 05:18:09;;;;;;;14.20;9.40;;;4.30;99.90;;;;;;5011602;28;20553;-51
2022/12/20 05:20:36;;;;;;;16.33;10.57;;;4.40;99.90;;;;;;5010316;28;20495;-52
2022/12/20 05:28:34;;;;;;;15.27;9.87;;;4.60;99.90;;;;;;5008836;28;20594;-51
2022/12/20 05:31:02;;;;;;;12.93;10.00;;;4.70;99.90;;;;;;5006632;28;20488;-51
2022/12/20 05:33:29;;;;;;;15.27;10.70;;;4.80;99.90;;;;;;5011195;28;21157;-51
2022/12/20 05:35:56;;;;;;;13.83;10.00;;;4.80;99.90;;;;;;5007105;28;20519;-52
2022/12/20 05:38:23;;;;;;;12.77;9.83;;;4.80;99.90;;;;;;5003128;28;20974;-52
2022/12/20 05:40:50;;;;;;;11.13;9.33;;;4.80;99.90;;;;;;5008536;28;20496;-52
2022/12/20 05:43:18;;;;;;;11.97;9.63;;;4.90;99.90;;;;;;5009878;28;20464;-53
2022/12/20 05:45:47;;;;;;;16.80;9.80;;;4.90;99.90;;;;;;5000516;28;20471;-53
2022/12/20 05:48:15;;;;;;;13.50;9.90;;;5.00;99.90;;;;;;5009801;28;20455;-52
2022/12/20 05:50:42;;;;;;;14.50;12.20;;;5.00;99.90;;;;;;5000529;28;20451;-52
2022/12/20 05:53:09;;;;;;;12.83;10.47;;;5.10;99.90;;;;;;5009213;28;20464;-52
2022/12/20 05:55:36;;;;;;;14.33;10.30;;;5.20;99.90;;;;;;5004371;28;20541;-52
2022/12/20 05:58:02;;;;;;;16.03;11.53;;;5.20;99.90;;;;;;5014724;28;20945;-52
2022/12/20 06:00:29;;;;;;;11.20;9.63;;;5.30;99.90;;;;;;5009931;28;21132;-52
2022/12/20 06:02:55;;;;;;;15.97;11.23;;;5.30;99.90;;;;;;5009666;28;20510;-51
2022/12/20 06:05:23;;;;;;;13.23;10.60;;;5.30;99.90;;;;;;5011057;28;20491;-52
2022/12/20 06:07:50;;;;;;;13.33;9.73;;;5.30;99.90;;;;;;5009977;28;20460;-52
2022/12/20 06:10:16;;;;;;;13.03;10.20;;;5.30;99.90;;;;;;5006161;28;20492;-52
2022/12/20 06:12:43;;;;;;;11.27;9.90;;;5.40;99.90;;;;;;5008162;28;20490;-51
2022/12/20 06:15:10;;;;;;;12.83;10.53;;;5.40;99.90;;;;;;5009030;28;21020;-51
2022/12/20 06:17:37;;;;;;;13.90;10.00;;;5.40;99.90;;;;;;5005601;28;20483;-51
2022/12/20 06:20:04;;;;;;;11.03;9.20;;;5.40;99.90;;;;;;5011786;28;20499;-51
2022/12/20 06:22:32;;;;;;;16.00;10.07;;;5.40;99.90;;;;;;5012843;28;20464;-52
2022/12/20 06:24:59;;;;;;;11.60;10.27;;;5.40;99.90;;;;;;5008423;28;20490;-51
2022/12/20 06:27:25;;;;;;;14.40;11.57;;;5.40;99.90;;;;;;5013554;28;20460;-51
2022/12/20 06:29:53;;;;;;;14.67;10.67;;;5.40;99.90;;;;;;5011704;28;20506;-52
2022/12/20 06:32:20;;;;;;;14.40;10.60;;;5.40;99.90;;;;;;5013683;28;20549;-52
2022/12/20 06:34:46;;;;;;;11.23;9.80;;;5.40;99.90;;;;;;5009416;28;20523;-53
2022/12/20 06:37:13;;;;;;;12.53;10.53;;;5.40;99.90;;;;;;5012970;28;20519;-52
2022/12/20 06:39:41;;;;;;;14.43;9.70;;;5.40;99.90;;;;;;5013352;28;20495;-52
2022/12/20 06:42:07;;;;;;;11.97;10.10;;;5.40;99.90;;;;;;5008521;28;20502;-51
2022/12/20 06:44:34;;;;;;;12.50;10.50;;;5.40;99.90;;;;;;5009065;28;20491;-52
2022/12/20 06:47:01;;;;;;;13.80;10.57;;;5.40;99.90;;;;;;5010698;28;20484;-51
2022/12/20 06:49:28;;;;;;;17.37;11.00;;;5.40;99.90;;;;;;5013532;28;20540;-52
2022/12/20 06:51:55;;;;;;;13.30;10.30;;;5.40;99.90;;;;;;5012767;28;20463;-52
2022/12/20 06:54:21;;;;;;;13.13;10.13;;;5.30;99.90;;;;;;5018111;28;20996;-51
2022/12/20 06:56:49;;;;;;;12.13;10.17;;;5.30;99.90;;;;;;5015291;28;20515;-52
2022/12/20 06:59:16;;;;;;;10.80;9.30;;;5.30;99.90;;;;;;5011995;28;20510;-51
2022/12/20 07:01:43;;;;;;;17.40;11.00;;;5.20;99.90;;;;;;5011821;28;20518;-52
2022/12/20 07:04:10;;;;;;;14.20;10.10;;;5.20;99.90;;;;;;5010935;28;20543;-52
2022/12/20 07:06:37;;;;;;;13.10;10.23;;;5.20;99.90;;;;;;5011274;28;20476;-52
2022/12/20 07:09:04;;;;;;;12.07;10.50;;;5.10;99.90;;;;;;5006430;28;20451;-51
2022/12/20 07:11:30;;;;;;;15.27;10.93;;;5.10;99.90;;;;;;5013033;28;20489;-52
2022/12/20 07:13:58;;;;;;;13.93;11.30;;;5.10;99.90;;;;;;5012390;28;20514;-51
2022/12/20 07:16:25;;;;;;;12.40;9.60;;;5.10;99.90;;;;;;5004689;28;20564;-51
2022/12/20 07:18:52;;;;;;;14.80;10.47;;;5.00;99.90;;;;;;5008345;28;20510;-52
2022/12/20 07:21:20;;;;;;;16.87;10.90;;;5.00;99.90;;;;;;5011197;28;20898;-51
2022/12/20 07:23:47;;;;;;;16.30;10.90;;;5.10;99.90;;;;;;5010169;28;20492;-51
2022/12/20 07:26:14;;;;;;;16.43;11.50;;;5.00;99.90;;;;;;5003611;28;20515;-52
2022/12/20 07:28:42;;;;;;;15.27;12.27;;;5.00;99.90;;;;;;5007959;28;20468;-52
2022/12/20 07:31:10;;;;;;;14.03;11.23;;;5.00;99.90;;;;;;5009505;28;20505;-52
2022/12/20 07:33:37;;;;;;;16.97;12.03;;;5.00;99.90;;;;;;5006647;28;20913;-52
2022/12/20 07:36:05;;;;;;;16.00;11.87;;;5.00;99.90;;;;;;5010599;28;20487;-52
2022/12/20 07:38:32;;;;;;;14.37;11.37;;;5.00;99.90;;;;;;5010363;28;20511;-52
2022/12/20 07:40:59;;;;;;;17.00;11.97;;;5.00;99.90;;;;;;5010940;28;20891;-52
2022/12/20 07:43:25;;;;;;;15.10;11.47;;;5.00;99.90;;;;;;5006410;28;20499;-51
2022/12/20 07:45:55;;;;;;;13.37;10.50;;;5.00;99.90;;;;;;5011000;28;20475;-51
2022/12/20 07:48:23;;;;;;;14.23;10.37;;;5.00;99.90;;;;;;5005311;28;20483;-52
2022/12/20 07:50:51;;;;;;;12.60;10.30;;;5.00;99.90;;;;;;4997387;28;20467;-52
2022/12/20 07:53:19;;;;;;;14.77;11.63;;;5.00;99.90;;;;;;5006765;28;20464;-52
2022/12/20 07:55:45;;;;;;;14.90;11.77;;;5.00;99.90;;;;;;5008796;28;20475;-52
2022/12/20 07:58:13;;;;;;;13.60;11.40;;;5.00;99.90;;;;;;5008237;28;20608;-52
2022/12/20 08:00:39;;;;;;;13.50;11.00;;;5.00;99.90;;;;;;5011491;28;20502;-52
2022/12/20 08:03:10;;;;;;;14.10;11.00;;;5.10;99.90;;;;;;4991993;28;20915;-52
2022/12/20 08:05:41;;;;;;;13.50;10.87;;;5.10;99.90;;;;;;5000757;28;20517;-52
2022/12/20 08:08:08;;;;;;;11.50;10.10;;;5.10;99.90;;;;;;4993761;28;20496;-51
2022/12/20 08:10:37;;;;;;;16.13;10.47;;;5.10;99.90;;;;;;4996660;28;20542;-51
2022/12/20 08:13:04;;;;;;;12.40;10.40;;;5.10;99.90;;;;;;4997206;28;20551;-52
2022/12/20 08:15:31;;;;;;;13.60;10.77;;;5.10;99.90;;;;;;5000683;28;24651;-51
2022/12/20 08:17:57;;;;;;;13.93;11.07;;;5.10;99.90;;;;;;5007661;28;20488;-51
2022/12/20 08:20:24;;;;;;;13.60;10.50;;;5.10;99.90;;;;;;5004840;28;21075;-52
2022/12/20 08:22:52;;;;;;;14.87;11.67;;;5.20;99.90;;;;;;5009252;28;20491;-51
2022/12/20 08:25:20;;;;;;;14.07;11.10;;;5.10;99.90;;;;;;5008811;28;20522;-51
2022/12/20 08:27:47;;;;;;;16.50;10.30;;;5.10;99.90;;;;;;5010492;28;20483;-52
2022/12/20 08:30:14;;;;;;;15.70;11.57;;;5.10;99.90;;;;;;5001848;28;20459;-51
2022/12/20 08:32:41;;;;;;;14.87;10.80;;;5.20;99.90;;;;;;5001032;28;20522;-51
2022/12/20 08:35:08;;;;;;;15.53;10.90;;;5.20;99.90;;;;;;5008145;28;20471;-52
2022/12/20 08:37:35;;;;;;;13.90;10.03;;;5.20;99.90;;;;;;5011997;28;20519;-51
2022/12/20 08:40:03;;;;;;;14.90;10.63;;;5.20;99.90;;;;;;4997050;28;20536;-51
2022/12/20 08:42:29;;;;;;;16.00;10.80;;;5.20;99.90;;;;;;4998174;28;20464;-51
2022/12/20 08:44:56;;;;;;;14.07;11.30;;;5.20;99.90;;;;;;4991484;28;20574;-51
2022/12/20 08:47:23;;;;;;;16.93;13.00;;;5.20;99.90;;;;;;4992393;28;21043;-52
2022/12/20 08:49:49;;;;;;;14.93;11.07;;;5.30;99.90;;;;;;4990341;28;21644;-51
2022/12/20 08:52:16;;;;;;;13.53;11.80;;;5.30;99.90;;;;;;5002800;28;20913;-52
2022/12/20 08:54:42;;;;;;;15.23;11.13;;;5.30;99.90;;;;;;5010674;28;20499;-51
2022/12/20 08:57:10;;;;;;;13.60;10.73;;;5.30;99.90;;;;;;5001081;28;20579;-52
2022/12/20 08:59:37;;;;;;;14.43;10.87;;;5.30;99.90;;;;;;4998945;28;20495;-51
2022/12/20 09:02:03;;;;;;;16.80;12.20;;;5.30;99.90;;;;;;5001407;28;20492;-51
2022/12/20 09:04:30;;;;;;;13.80;10.80;;;5.30;99.90;;;;;;5007419;28;20487;-52
2022/12/20 09:06:56;;;;;;;15.00;10.90;;;5.30;99.90;;;;;;5002584;28;20471;-51
2022/12/20 09:09:23;;;;;;;15.70;11.30;;;5.40;99.90;;;;;;5008080;28;20506;-51
2022/12/20 09:11:49;;;;;;;19.00;12.33;;;5.40;99.90;;;;;;5006066;28;20498;-51
2022/12/20 09:14:18;;;;;;;14.37;11.13;;;5.40;99.90;;;;;;5007483;28;20492;-51
2022/12/20 09:16:45;;;;;;;18.67;12.23;;;5.50;99.90;;;;;;5006733;28;20515;-51
2022/12/20 09:19:13;;;;;;;16.03;12.00;;;5.60;99.90;;;;;;5008817;28;20582;-51
2022/12/20 09:21:40;;;;;;;14.17;11.10;;;5.60;99.90;;;;;;5009005;28;20476;-51
2022/12/20 09:24:07;;;;;;;16.60;11.77;;;5.70;99.90;;;;;;5003670;28;20983;-51
2022/12/20 09:26:35;;;;;;;16.00;11.67;;;5.70;99.90;;;;;;5009666;28;20487;-53
2022/12/20 09:29:02;;;;;;;16.50;11.47;;;5.80;99.90;;;;;;5004553;28;20993;-52
2022/12/20 09:31:30;;;;;;;17.07;12.93;;;5.80;99.90;;;;;;5006930;28;20977;-51
2022/12/20 09:33:58;;;;;;;20.03;11.80;;;5.80;99.90;;;;;;5003486;28;20964;-51
2022/12/20 09:36:26;;;;;;;20.00;11.87;;;5.80;99.90;;;;;;5000261;28;20490;-52
2022/12/20 09:38:53;;;;;;;17.23;12.67;;;5.80;99.90;;;;;;5007626;28;20482;-51
2022/12/20 09:41:28;;;;;;;16.03;12.47;;;5.80;99.90;;;;;;4999347;28;20459;-51
2022/12/20 09:43:55;;;;;;;17.10;12.50;;;5.80;99.90;;;;;;4998690;28;20461;-51
2022/12/20 09:46:23;;;;;;;17.07;12.13;;;5.80;99.90;;;;;;4997621;28;20475;-51
2022/12/20 09:48:51;;;;;;;18.03;11.70;;;6.00;99.90;;;;;;4999613;28;20452;-51
2022/12/20 09:51:46;;;;;;;15.50;12.53;;;6.00;99.90;;;;;;5003614;28;20555;-51
2022/12/20 09:54:21;;;;;;;18.20;12.70;;;5.90;99.90;;;;;;5010203;28;20471;-51
2022/12/20 09:56:57;;;;;;;16.40;11.30;;;5.90;99.90;;;;;;5006650;28;21056;-52
2022/12/20 09:59:24;;;;;;;18.37;11.80;;;6.00;99.90;;;;;;5011271;28;20530;-51
2022/12/20 10:01:52;;;;;;;16.07;12.40;;;6.00;99.90;;;;;;5009918;28;20467;-51
2022/12/20 10:04:24;;;;;;;17.80;12.93;;;6.00;99.90;;;;;;5010789;28;20463;-51
2022/12/20 10:07:06;;;;;;;16.27;11.80;;;6.10;99.90;;;;;;5009777;28;21025;-51
2022/12/20 10:09:59;;;;;;;16.07;12.43;;;6.10;99.90;;;;;;5009145;28;20498;-51
2022/12/20 10:12:34;;;;;;;17.80;12.87;;;6.20;99.90;;;;;;5009712;28;20463;-52
2022/12/20 10:15:18;;;;;;;20.80;13.57;;;6.20;99.90;;;;;;5013260;28;20486;-51
2022/12/20 10:18:14;;;;;;;16.87;12.33;;;6.30;99.90;;;;;;4996356;28;20484;-51
2022/12/20 10:20:52;;;;;;;18.97;12.00;;;6.30;99.90;;;;;;5006108;28;20471;-53
2022/12/20 10:23:25;;;;;;;24.07;12.53;;;6.30;99.90;;;;;;5004677;28;20458;-53
2022/12/20 10:25:54;;;;;;;16.03;11.70;;;6.30;99.90;;;;;;5007414;28;20479;-52
2022/12/20 10:28:26;;;;;;;20.13;11.93;;;6.30;99.90;;;;;;5008321;28;20448;-53
2022/12/20 10:30:52;;;;;;;16.70;12.30;;;6.40;99.90;;;;;;5005303;28;20976;-53
2022/12/20 10:33:21;;;;;;;17.80;11.60;;;6.40;99.90;;;;;;5008527;28;20855;-52
2022/12/20 10:35:51;;;;;;;15.57;12.23;;;6.40;99.90;;;;;;5008120;28;21057;-52
2022/12/20 10:38:19;;;;;;;16.30;11.50;;;6.40;99.90;;;;;;5009348;28;20947;-53
2022/12/20 10:40:48;;;;;;;18.27;12.10;;;6.50;99.90;;;;;;5005691;28;20529;-53
2022/12/20 10:43:18;;;;;;;17.70;11.93;;;6.50;99.90;;;;;;5003633;28;20457;-53
2022/12/20 10:45:55;;;;;;;17.47;13.30;;;6.60;99.90;;;;;;5006949;28;20479;-53
2022/12/20 10:48:29;;;;;;;18.70;10.83;;;6.60;99.90;;;;;;5013472;28;20458;-52
2022/12/20 10:51:00;;;;;;;13.87;11.27;;;6.60;99.90;;;;;;5004719;28;20475;-58
2022/12/20 10:53:27;;;;;;;17.03;11.77;;;6.50;99.90;;;;;;5003341;28;20459;-51
2022/12/20 10:56:08;;;;;;;15.90;11.90;;;6.50;99.90;;;;;;4993466;28;20495;-51
2022/12/20 10:58:36;;;;;;;15.67;11.33;;;6.60;99.90;;;;;;4998488;28;20483;-51
2022/12/20 11:01:11;;;;;;;15.27;11.80;;;6.60;99.90;;;;;;5003491;28;20468;-53
2022/12/20 11:03:51;;;;;;;17.07;11.93;;;6.60;99.90;;;;;;4999207;28;20967;-51
2022/12/20 11:06:21;;;;;;;14.23;11.40;;;6.60;99.90;;;;;;4997822;28;20483;-52
2022/12/20 11:08:48;;;;;;;16.27;11.87;;;6.60;99.90;;;;;;5006028;28;20452;-51
2022/12/20 11:11:17;;;;;;;13.93;11.30;;;6.60;99.90;;;;;;5006131;28;20518;-52
2022/12/20 11:13:45;;;;;;;14.20;11.33;;;6.60;99.90;;;;;;5004346;28;20468;-51
2022/12/20 11:16:33;;;;;;;17.63;12.00;;;6.70;99.90;;;;;;5006963;28;20484;-52
2022/12/20 11:19:16;;;;;;;17.47;12.80;;;6.70;99.90;;;;;;5005343;28;20483;-51
2022/12/20 11:21:53;;;;;;;14.43;11.97;;;6.80;99.90;;;;;;5010506;28;20491;-52
2022/12/20 11:24:32;;;;;;;16.83;11.30;;;6.80;99.90;;;;;;5003787;28;20460;-52
2022/12/20 11:27:13;;;;;;;14.60;10.53;;;6.70;99.90;;;;;;5010114;28;20463;-52
2022/12/20 11:29:55;;;;;;;17.70;12.50;;;6.80;99.90;;;;;;5004944;28;20465;-53
2022/12/20 11:32:34;;;;;;;14.93;10.83;;;6.80;99.90;;;;;;5003769;28;20491;-53
2022/12/20 11:35:11;;;;;;;15.43;11.67;;;6.80;99.90;;;;;;5014866;28;20494;-51
2022/12/20 11:37:46;;;;;;;15.50;11.20;;;6.80;99.90;;;;;;5010733;28;20471;-52
2022/12/20 11:40:26;;;;;;;15.73;11.13;;;6.80;99.90;;;;;;5013573;28;20463;-53
2022/12/20 11:43:05;;;;;;;15.13;11.00;;;6.90;99.90;;;;;;5010841;28;20503;-54
2022/12/20 11:45:42;;;;;;;17.27;11.67;;;6.90;99.90;;;;;;5007200;28;20483;-53
2022/12/20 11:48:34;;;;;;;15.43;10.73;;;6.90;99.90;;;;;;5007075;28;20472;-52
2022/12/20 11:51:07;;;;;;;14.43;11.60;;;7.00;99.90;;;;;;5003091;28;20468;-51
2022/12/20 11:53:39;;;;;;;14.80;10.53;;;7.00;99.90;;;;;;5004040;28;20487;-52
2022/12/20 11:56:12;;;;;;;12.50;10.10;;;7.00;99.90;;;;;;5006079;28;20491;-52
2022/12/20 11:58:50;;;;;;;17.13;10.50;;;7.00;99.90;;;;;;5000531;28;20498;-51
2022/12/20 12:01:20;;;;;;;13.27;10.90;;;7.00;99.90;;;;;;5007866;28;20695;-52
2022/12/20 12:04:00;;;;;;;15.70;11.17;;;7.10;99.90;;;;;;5007212;28;20515;-51
2022/12/20 12:06:31;;;;;;;13.50;10.90;;;7.10;99.90;;;;;;5004510;28;20553;-52
2022/12/20 12:09:08;;;;;;;12.60;9.83;;;7.10;99.90;;;;;;4993676;28;20463;-52
2022/12/20 12:11:40;;;;;;;13.57;10.40;;;7.10;99.90;;;;;;4999466;28;20478;-53
2022/12/20 12:14:10;;;;;;;14.13;9.70;;;7.20;99.90;;;;;;4992252;28;20467;-53
2022/12/20 12:16:43;;;;;;;12.30;10.30;;;7.20;99.90;;;;;;4996121;28;20488;-52
2022/12/20 12:19:11;;;;;;;15.07;9.77;;;7.20;99.90;;;;;;4999407;28;20571;-52
2022/12/20 12:21:43;;;;;;;13.90;10.30;;;7.20;99.90;;;;;;4995586;28;20470;-52
2022/12/20 12:24:19;;;;;;;14.73;10.50;;;7.20;99.90;;;;;;4994213;28;20456;-51
2022/12/20 12:26:46;;;;;;;12.30;9.40;;;7.30;99.90;;;;;;4997559;28;20817;-53
2022/12/20 12:29:15;;;;;;;20.60;10.40;;;7.30;99.90;;;;;;4999079;28;20460;-53
2022/12/20 12:31:46;;;;;;;12.37;9.57;;;7.30;99.90;;;;;;4998587;28;20455;-52
2022/12/20 12:34:22;;;;;;;12.47;9.30;;;7.30;99.90;;;;;;4998610;28;20491;-52
2022/12/20 12:37:15;;;;;;;13.83;10.03;;;7.40;99.90;;;;;;4996155;28;21032;-52
2022/12/20 12:40:18;;;;;;;13.17;10.40;;;7.40;99.90;;;;;;5003505;28;20527;-52
2022/12/20 12:43:13;;;;;;;12.53;9.70;;;7.50;99.90;;;;;;4966034;28;20491;-51
2022/12/20 12:45:45;;;;;;;9.70;7.73;;;7.50;99.90;;;;;;5005603;28;20495;-52
2022/12/20 12:48:18;;;;;;;20.87;9.97;;;7.50;99.90;;;;;;5000861;28;20468;-51
2022/12/20 12:50:47;;;;;;;12.37;9.20;;;7.50;99.90;;;;;;5006560;28;20491;-52
2022/12/20 12:53:17;;;;;;;15.10;8.83;;;7.50;99.90;;;;;;5006552;28;20495;-52
2022/12/20 12:55:47;;;;;;;13.47;10.33;;;7.50;99.90;;;;;;5010972;28;20515;-51
2022/12/20 12:58:36;;;;;;;13.83;8.97;;;7.50;99.90;;;;;;4999375;28;20495;-52
2022/12/20 13:01:07;;;;;;;11.47;9.77;;;7.50;99.90;;;;;;5004700;28;20548;-52
2022/12/20 13:04:05;;;;;;;12.73;9.73;;;7.50;99.90;;;;;;5008344;28;20468;-52